Time;durP1;ratioP1;P1;durP2;ratioP2;P2;SDS_P1;SDS_P2;PMS_P1;PMS_P2;Temp;Humidity;BMP_temperature;BMP_pressure;BME280_temperature;BME280_humidity;BME280_pressure;Samples;Min_cycle;Max_cycle;Signal;HPM_P1;HPM_P2
2023/02/27 00:00:39;;;;;;;1.65;1.30;;;;;;;3.74;100.00;97781.50;6276354;22;20041;-93
2023/02/27 00:03:05;;;;;;;1.15;1.05;;;;;;;3.94;100.00;97804.84;6277022;22;20449;-92
2023/02/27 00:05:31;;;;;;;1.30;1.20;;;;;;;3.83;100.00;97802.38;6278371;22;20019;-92
2023/02/27 00:07:58;;;;;;;1.10;1.10;;;;;;;3.95;100.00;97817.09;6277808;22;20019;-91
2023/02/27 00:10:24;;;;;;;1.38;1.27;;;;;;;3.95;100.00;97812.72;6277719;22;20019;-93
2023/02/27 00:12:50;;;;;;;1.27;1.17;;;;;;;3.93;100.00;97814.50;6278054;22;20504;-92
2023/02/27 00:15:18;;;;;;;1.10;1.10;;;;;;;3.91;100.00;97811.88;6277046;22;20023;-92
2023/02/27 00:17:44;;;;;;;1.20;1.10;;;;;;;3.95;100.00;97817.09;6329063;22;20019;-90
2023/02/27 00:20:15;;;;;;;1.92;1.52;;;;;;;3.79;100.00;97796.28;6278419;22;20435;-91
2023/02/27 00:22:42;;;;;;;1.00;1.00;;;;;;;3.83;100.00;97791.88;6278367;22;20011;-92
2023/02/27 00:25:10;;;;;;;1.30;1.10;;;;;;;3.96;100.00;97818.84;6277603;22;20050;-92
2023/02/27 00:27:36;;;;;;;1.10;1.10;;;;;;;3.82;100.00;97798.91;6277446;22;20051;-92
2023/02/27 00:30:02;;;;;;;1.25;1.15;;;;;;;3.90;100.00;97819.78;6278345;22;20407;-92
2023/02/27 00:32:28;;;;;;;1.20;1.10;;;;;;;3.79;100.00;97804.19;6277646;22;20114;-91
2023/02/27 00:34:54;;;;;;;1.20;1.10;;;;;;;3.88;100.00;97837.34;6277430;22;20047;-91
2023/02/27 00:37:20;;;;;;;1.27;1.17;;;;;;;3.72;100.00;97806.94;6276929;22;20023;-92
2023/02/27 00:39:46;;;;;;;1.00;1.00;;;;;;;3.85;100.00;97817.25;6277970;22;20111;-91
2023/02/27 00:42:13;;;;;;;1.25;1.13;;;;;;;3.89;100.00;97821.56;6277684;22;20394;-90
2023/02/27 00:44:40;;;;;;;1.08;1.08;;;;;;;3.83;100.00;97824.28;6277863;22;20019;-92
2023/02/27 00:47:05;;;;;;;0.98;0.98;;;;;;;4.10;100.00;97843.19;6275342;22;20073;-92
2023/02/27 00:49:31;;;;;;;1.02;1.02;;;;;;;3.97;100.00;97839.88;6277376;22;20016;-92
2023/02/27 00:51:57;;;;;;;0.90;0.90;;;;;;;3.89;100.00;97824.19;6278185;22;20011;-90
2023/02/27 00:54:23;;;;;;;0.90;0.90;;;;;;;3.85;100.00;97834.78;6278137;22;20024;-92
2023/02/27 00:56:49;;;;;;;0.90;0.90;;;;;;;3.91;100.00;97851.34;6278044;22;20020;-92
2023/02/27 00:59:17;;;;;;;0.90;0.90;;;;;;;4.01;100.00;97859.97;6278381;22;20015;-92
2023/02/27 01:01:43;;;;;;;0.95;0.95;;;;;;;3.80;100.00;97828.75;6277725;22;20443;-92
2023/02/27 01:04:09;;;;;;;1.42;1.00;;;;;;;3.91;100.00;97853.09;6277315;22;20106;-94
2023/02/27 01:06:35;;;;;;;0.90;0.90;;;;;;;4.03;100.00;97859.94;6276373;22;20062;-93
2023/02/27 01:09:01;;;;;;;0.90;0.90;;;;;;;3.95;100.00;97846.03;6277046;22;20030;-93
2023/02/27 01:11:27;;;;;;;1.10;1.00;;;;;;;4.03;100.00;97855.53;6277675;22;20099;-94
2023/02/27 01:13:53;;;;;;;1.23;0.90;;;;;;;4.06;100.00;97857.28;6276580;22;20164;-91
2023/02/27 01:16:21;;;;;;;1.00;1.00;;;;;;;3.91;100.00;97839.97;6275961;22;20042;-93
2023/02/27 01:18:47;;;;;;;0.80;0.80;;;;;;;4.05;100.00;97863.41;6278051;22;20027;-93
2023/02/27 01:21:13;;;;;;;1.85;1.00;;;;;;;3.98;100.00;97852.13;6276575;22;20051;-91
2023/02/27 01:23:39;;;;;;;1.10;1.00;;;;;;;3.93;100.00;97847.84;6276871;22;20026;-91
2023/02/27 01:26:05;;;;;;;0.90;0.90;;;;;;;4.06;100.00;97871.28;6277110;22;20439;-90
2023/02/27 01:28:30;;;;;;;0.90;0.90;;;;;;;4.03;100.00;97860.78;6277884;22;20020;-92
2023/02/27 01:30:56;;;;;;;1.08;0.82;;;;;;;3.98;100.00;97856.50;6274980;22;20028;-92
2023/02/27 01:33:24;;;;;;;0.80;0.80;;;;;;;4.03;100.00;97866.06;6278008;22;20023;-93
2023/02/27 01:35:50;;;;;;;1.35;1.00;;;;;;;4.18;100.00;97886.00;6276827;22;20085;-93
2023/02/27 01:38:16;;;;;;;0.80;0.80;;;;;;;4.24;100.00;97891.16;6277466;22;20381;-93
2023/02/27 01:40:42;;;;;;;0.95;0.88;;;;;;;4.18;100.00;97888.63;6277808;22;20015;-92
2023/02/27 01:43:14;;;;;;;0.70;0.70;;;;;;;4.32;100.00;97922.66;6277152;22;20019;-92
2023/02/27 01:45:41;;;;;;;1.00;1.00;;;;;;;4.14;100.00;97889.56;6277700;22;20028;-93
2023/02/27 01:48:13;;;;;;;0.93;0.90;;;;;;;4.23;100.00;97909.59;6277063;22;20149;-93
2023/02/27 01:50:48;;;;;;;0.80;0.80;;;;;;;4.36;100.00;97899.75;6277180;22;20354;-93
2023/02/27 01:53:16;;;;;;;0.90;0.90;;;;;;;4.29;100.00;97897.25;6275526;22;20110;-92
2023/02/27 01:55:42;;;;;;;0.90;0.90;;;;;;;4.27;100.00;97917.47;6276904;22;20019;-91
2023/02/27 01:58:12;;;;;;;0.80;0.80;;;;;;;4.13;100.00;97892.25;6276826;22;20079;-93
2023/02/27 02:00:38;;;;;;;0.70;0.70;;;;;;;4.17;100.00;97918.47;6276060;22;20110;-94
2023/02/27 02:03:13;;;;;;;0.90;0.90;;;;;;;4.34;100.00;97926.13;6277268;22;20020;-93
2023/02/27 02:05:39;;;;;;;2.08;0.95;;;;;;;4.28;100.00;97913.06;6277028;22;20525;-91
2023/02/27 02:08:06;;;;;;;3.92;1.52;;;;;;;4.25;100.00;97924.50;6276598;22;20019;-91
2023/02/27 02:10:32;;;;;;;4.45;1.50;;;;;;;4.04;100.00;97898.50;6277336;22;20019;-92
2023/02/27 02:12:59;;;;;;;1.33;1.00;;;;;;;3.90;100.00;97901.31;6276815;22;20019;-93
2023/02/27 02:15:32;;;;;;;0.80;0.80;;;;;;;4.11;100.00;97927.31;6275282;22;20446;-94
2023/02/27 02:18:09;;;;;;;1.15;1.10;;;;;;;4.16;100.00;97907.97;6277936;22;20024;-93
2023/02/27 02:21:03;;;;;;;1.10;1.10;;;;;;;4.08;100.00;97902.84;6278354;22;20069;-92
2023/02/27 02:24:07;;;;;;;1.00;1.00;;;;;;;4.24;100.00;97933.28;6277656;22;20349;-93
2023/02/27 02:26:56;;;;;;;1.40;1.30;;;;;;;4.25;100.00;97923.59;6254797;22;20182;-94
2023/02/27 02:29:54;;;;;;;0.95;0.95;;;;;;;4.10;100.00;97901.06;6276628;22;20032;-93
2023/02/27 02:33:09;;;;;;;1.38;1.10;;;;;;;4.13;100.00;97908.88;6276247;22;20042;-93
2023/02/27 02:36:04;;;;;;;0.93;0.93;;;;;;;4.15;100.00;97922.03;6276611;22;20026;-93
2023/02/27 02:38:58;;;;;;;0.80;0.80;;;;;;;4.17;100.00;97925.50;6201133;22;20055;-94
2023/02/27 02:41:33;;;;;;;0.80;0.80;;;;;;;4.11;100.00;97924.69;6275725;22;20023;-92
2023/02/27 02:44:06;;;;;;;0.80;0.80;;;;;;;3.95;100.00;97903.88;6276804;22;20020;-94
2023/02/27 02:46:40;;;;;;;0.90;0.90;;;;;;;3.86;100.00;97902.25;6275876;22;20496;-93
2023/02/27 02:49:15;;;;;;;0.80;0.80;;;;;;;3.76;100.00;97896.28;6277008;22;20106;-92
2023/02/27 02:51:49;;;;;;;1.02;0.95;;;;;;;3.76;100.00;97900.66;6275931;22;20027;-92
2023/02/27 02:54:25;;;;;;;0.80;0.80;;;;;;;3.81;100.00;97910.22;6275799;22;20031;-93
2023/02/27 02:56:59;;;;;;;0.60;0.60;;;;;;;3.80;100.00;97897.97;6276586;22;20114;-93
2023/02/27 02:59:31;;;;;;;1.05;1.00;;;;;;;3.88;100.00;97935.56;6276096;22;20027;-91
2023/02/27 03:02:02;;;;;;;0.90;0.90;;;;;;;3.65;100.00;97914.81;6274302;22;20020;-94
2023/02/27 03:04:37;;;;;;;0.88;0.88;;;;;;;3.83;100.00;97939.13;6276630;22;20441;-92
2023/02/27 03:07:09;;;;;;;1.00;0.90;;;;;;;3.60;100.00;97913.13;6276574;22;20020;-93
2023/02/27 03:09:39;;;;;;;1.27;0.90;;;;;;;3.63;100.00;97915.75;6276539;22;20020;-91
2023/02/27 03:12:09;;;;;;;0.93;0.93;;;;;;;3.53;100.00;97898.34;6277165;22;20016;-94
2023/02/27 03:14:40;;;;;;;1.02;0.90;;;;;;;3.57;100.00;97903.53;6276114;22;20110;-93
2023/02/27 03:17:09;;;;;;;0.98;0.95;;;;;;;3.72;100.00;97930.53;6276293;22;20106;-93
2023/02/27 03:19:40;;;;;;;1.00;1.00;;;;;;;3.69;100.00;97915.66;6275715;22;20020;-92
2023/02/27 03:22:09;;;;;;;0.90;0.90;;;;;;;3.75;100.00;97925.22;6276895;22;20074;-91
2023/02/27 03:24:40;;;;;;;0.70;0.70;;;;;;;3.69;100.00;97908.63;6275931;22;20023;-93
2023/02/27 03:27:08;;;;;;;1.25;0.95;;;;;;;3.68;100.00;97900.75;6276154;22;20024;-92
2023/02/27 03:29:39;;;;;;;1.45;0.80;;;;;;;3.75;100.00;97912.06;6277834;22;20020;-93
2023/02/27 03:32:11;;;;;;;0.88;0.88;;;;;;;3.85;100.00;97932.09;6276393;22;20012;-91
2023/02/27 03:34:40;;;;;;;0.80;0.80;;;;;;;3.87;100.00;97925.91;6277923;22;20397;-92
2023/02/27 03:37:19;;;;;;;0.80;0.80;;;;;;;3.84;100.00;97928.59;6278131;22;20051;-93
2023/02/27 03:39:49;;;;;;;0.80;0.80;;;;;;;3.96;100.00;97948.59;6277039;22;20087;-92
2023/02/27 03:42:22;;;;;;;0.80;0.80;;;;;;;3.96;100.00;97939.84;6277331;22;20061;-92
2023/02/27 03:44:57;;;;;;;0.80;0.80;;;;;;;3.97;100.00;97937.19;6277939;22;20099;-92
2023/02/27 03:47:23;;;;;;;0.73;0.73;;;;;;;3.99;100.00;97948.56;6275956;22;20019;-91
2023/02/27 03:49:50;;;;;;;0.80;0.80;;;;;;;3.98;100.00;97933.66;6277099;22;20070;-91
2023/02/27 03:52:17;;;;;;;0.70;0.70;;;;;;;4.08;100.00;97955.47;6278008;22;20020;-93
2023/02/27 03:54:50;;;;;;;0.80;0.80;;;;;;;3.95;100.00;97933.72;6279143;22;20075;-93
2023/02/27 03:57:16;;;;;;;0.75;0.75;;;;;;;4.11;100.00;97965.94;6279152;22;20405;-92
2023/02/27 03:59:42;;;;;;;0.77;0.77;;;;;;;4.10;100.00;97970.31;6279861;22;20020;-92
2023/02/27 04:02:08;;;;;;;0.70;0.70;;;;;;;4.13;100.00;97973.81;6277753;22;20106;-90
2023/02/27 04:04:34;;;;;;;0.80;0.80;;;;;;;4.05;100.00;97973.91;6279321;22;20050;-92
2023/02/27 04:10:18;;;;;;;0.80;0.80;;;;;;;4.17;100.00;97983.41;5112705;27;20739;-94
2023/02/27 04:13:26;;;;;;;0.77;0.77;;;;;;;4.22;100.00;98002.63;5111507;28;20055;-92
2023/02/27 04:16:14;;;;;;;0.73;0.73;;;;;;;4.19;100.00;97994.78;5052120;28;20037;-92
2023/02/27 04:18:55;;;;;;;0.70;0.70;;;;;;;4.19;100.00;98000.91;5074118;28;20878;-93
2023/02/27 04:21:26;;;;;;;0.95;0.80;;;;;;;4.22;100.00;98003.47;5052908;28;20044;-92
2023/02/27 04:24:01;;;;;;;0.70;0.70;;;;;;;4.22;100.00;97999.97;5052935;28;20045;-92
2023/02/27 04:26:32;;;;;;;0.75;0.75;;;;;;;4.25;100.00;97997.28;5053196;28;20135;-93
2023/02/27 04:29:03;;;;;;;0.70;0.70;;;;;;;4.27;100.00;98001.66;5052712;28;20057;-91
2023/02/27 04:31:35;;;;;;;0.80;0.80;;;;;;;4.17;100.00;97993.94;5049068;28;20071;-92
2023/02/27 04:34:09;;;;;;;0.70;0.70;;;;;;;4.23;100.00;97996.44;5053053;28;20049;-92
2023/02/27 04:36:40;;;;;;;1.25;0.80;;;;;;;4.27;100.00;98006.94;5052642;28;20520;-95
2023/02/27 04:39:08;;;;;;;0.60;0.60;;;;;;;4.22;100.00;97997.34;5052418;28;20418;-92
2023/02/27 04:41:42;;;;;;;0.70;0.70;;;;;;;4.24;100.00;98003.47;5052409;28;20040;-92
2023/02/27 04:44:10;;;;;;;0.80;0.80;;;;;;;4.24;100.00;98012.22;5050149;28;20045;-95
2023/02/27 04:46:41;;;;;;;0.80;0.80;;;;;;;4.25;100.00;98010.44;5046424;28;20045;-92
2023/02/27 04:49:11;;;;;;;0.70;0.70;;;;;;;4.25;100.00;98013.97;5051062;28;20029;-92
2023/02/27 04:51:43;;;;;;;0.82;0.70;;;;;;;4.35;100.00;98033.13;5087069;28;20048;-94
2023/02/27 04:54:13;;;;;;;0.88;0.88;;;;;;;4.26;100.00;98030.63;5110724;28;20047;-94
2023/02/27 04:56:45;;;;;;;0.75;0.75;;;;;;;4.15;100.00;98024.66;5110061;28;20048;-92
2023/02/27 04:59:16;;;;;;;0.80;0.80;;;;;;;4.23;100.00;98046.44;5109585;28;20130;-92
2023/02/27 05:01:48;;;;;;;0.90;0.90;;;;;;;4.02;100.00;98024.81;5109037;28;20057;-93
2023/02/27 05:04:18;;;;;;;0.82;0.80;;;;;;;4.03;100.00;98030.94;5109679;28;20055;-92
2023/02/27 05:06:46;;;;;;;0.90;0.90;;;;;;;4.22;100.00;98066.63;5108201;28;20123;-93
2023/02/27 05:09:19;;;;;;;0.70;0.70;;;;;;;4.20;100.00;98063.16;5109280;28;20040;-94
2023/02/27 05:11:50;;;;;;;0.70;0.70;;;;;;;3.99;100.00;98021.31;5109133;28;20397;-95
2023/02/27 05:14:20;;;;;;;0.70;0.70;;;;;;;3.99;100.00;98024.84;5109560;28;20044;-92
2023/02/27 05:16:51;;;;;;;0.88;0.88;;;;;;;4.01;100.00;98030.97;5104855;28;20052;-93
2023/02/27 05:19:17;;;;;;;0.80;0.80;;;;;;;4.03;100.00;98029.16;5106633;28;20074;-93
2023/02/27 05:21:51;;;;;;;0.82;0.82;;;;;;;4.13;100.00;98050.97;5090288;28;20497;-91
2023/02/27 05:24:29;;;;;;;0.90;0.90;;;;;;;4.09;100.00;98039.59;5095284;28;20032;-92
2023/02/27 05:27:11;;;;;;;0.80;0.80;;;;;;;4.17;100.00;98052.69;5093696;28;20085;-91
2023/02/27 05:29:44;;;;;;;0.85;0.85;;;;;;;4.19;100.00;98061.44;5095244;28;20044;-93
2023/02/27 05:32:19;;;;;;;1.10;1.10;;;;;;;4.21;100.00;98061.41;5093632;28;20146;-93
2023/02/27 05:34:50;;;;;;;1.00;0.95;;;;;;;4.14;100.00;98059.72;5094490;28;20040;-93
2023/02/27 05:37:19;;;;;;;1.00;1.00;;;;;;;4.01;100.00;98054.66;5094203;28;20043;-91
2023/02/27 05:39:47;;;;;;;0.90;0.90;;;;;;;4.09;100.00;98060.66;5094807;28;20919;-93
2023/02/27 05:42:21;;;;;;;1.00;1.00;;;;;;;4.03;100.00;98062.50;5094760;28;20572;-94
2023/02/27 05:44:53;;;;;;;1.00;1.00;;;;;;;4.04;100.00;98057.22;5094338;28;20040;-93
2023/02/27 05:47:22;;;;;;;1.83;1.10;;;;;;;4.14;100.00;98073.75;5092057;28;20036;-92
2023/02/27 05:49:53;;;;;;;1.27;1.17;;;;;;;4.09;100.00;98057.16;5093880;28;20032;-91
2023/02/27 05:52:23;;;;;;;0.98;0.98;;;;;;;4.05;100.00;98058.09;5093442;28;20036;-94
2023/02/27 05:54:54;;;;;;;1.20;1.05;;;;;;;4.20;100.00;98078.94;5096200;28;20066;-94
2023/02/27 05:57:27;;;;;;;1.20;1.10;;;;;;;4.25;100.00;98089.41;5095753;28;20075;-92
2023/02/27 05:59:58;;;;;;;1.13;1.00;;;;;;;4.24;100.00;98083.28;5096221;28;20043;-91
2023/02/27 06:02:24;;;;;;;1.00;1.00;;;;;;;4.05;100.00;98058.09;5095117;28;20179;-92
2023/02/27 06:04:50;;;;;;;0.90;0.90;;;;;;;4.03;100.00;98079.16;5095583;28;20135;-92
2023/02/27 06:07:17;;;;;;;1.10;1.10;;;;;;;4.04;100.00;98077.41;5096448;28;20131;-92
2023/02/27 06:09:44;;;;;;;1.10;1.10;;;;;;;4.10;100.00;98090.50;5095716;28;20044;-93
2023/02/27 06:12:10;;;;;;;1.20;1.10;;;;;;;4.04;100.00;98086.16;5095322;28;20055;-94
2023/02/27 06:14:37;;;;;;;1.05;1.00;;;;;;;3.96;100.00;98076.63;5095727;28;20043;-94
2023/02/27 06:17:03;;;;;;;1.10;1.00;;;;;;;3.88;100.00;98076.69;5093272;28;20138;-93
2023/02/27 06:19:29;;;;;;;1.70;1.20;;;;;;;3.92;100.00;98104.72;5097069;28;20574;-93
2023/02/27 06:21:55;;;;;;;1.10;1.10;;;;;;;3.79;100.00;98085.56;5098449;28;20131;-94
2023/02/27 06:24:21;;;;;;;1.65;1.30;;;;;;;3.83;100.00;98097.78;5102249;28;20036;-93
2023/02/27 06:26:47;;;;;;;1.17;1.10;;;;;;;3.73;100.00;98096.16;5098165;28;20059;-93
2023/02/27 06:29:13;;;;;;;1.30;1.20;;;;;;;3.76;100.00;98098.75;5098857;28;20056;-93
2023/02/27 06:31:40;;;;;;;1.30;1.20;;;;;;;3.78;100.00;98104.88;5095787;28;20032;-93
2023/02/27 06:34:06;;;;;;;1.75;1.27;;;;;;;3.82;100.00;98119.75;5099151;28;20040;-92
2023/02/27 06:36:32;;;;;;;1.20;1.10;;;;;;;3.97;100.00;98136.22;5097996;28;20462;-93
2023/02/27 06:38:58;;;;;;;1.58;1.30;;;;;;;3.99;100.00;98145.88;5101170;28;20145;-94
2023/02/27 06:41:24;;;;;;;2.08;1.30;;;;;;;3.85;100.00;98110.94;5100773;28;20040;-93
2023/02/27 06:43:50;;;;;;;1.58;1.38;;;;;;;4.02;100.00;98139.69;5099792;28;20177;-94
2023/02/27 06:46:16;;;;;;;1.50;1.30;;;;;;;3.88;100.00;98127.56;5098954;28;20040;-94
2023/02/27 06:48:44;;;;;;;2.10;1.25;;;;;;;4.12;100.00;98159.75;5100821;28;20061;-94
2023/02/27 06:51:10;;;;;;;2.55;1.50;;;;;;;4.02;100.00;98142.31;5102629;28;20473;-94
2023/02/27 06:53:36;;;;;;;3.33;1.40;;;;;;;4.00;100.00;98123.06;5098810;28;20036;-94
2023/02/27 06:56:02;;;;;;;1.48;1.27;;;;;;;4.01;100.00;98132.66;5099342;28;20388;-95
2023/02/27 06:58:27;;;;;;;1.40;1.30;;;;;;;3.98;100.00;98135.34;5102412;28;20044;-94
2023/02/27 07:00:53;;;;;;;1.30;1.30;;;;;;;4.05;100.00;98161.56;5094016;28;20147;-95
2023/02/27 07:03:19;;;;;;;1.55;1.45;;;;;;;4.03;100.00;98151.94;5094853;28;20489;-93
2023/02/27 07:05:46;;;;;;;2.35;1.50;;;;;;;4.03;100.00;98150.19;5095213;28;20103;-92
2023/02/27 07:08:16;;;;;;;1.30;1.20;;;;;;;4.14;100.00;98171.09;5092881;28;20844;-92
2023/02/27 07:10:45;;;;;;;1.20;1.10;;;;;;;4.23;100.00;98175.41;5093199;28;20458;-91
2023/02/27 07:13:11;;;;;;;;;;;;;;;4.25;100.00;98177.16;5093747;28;20127;-90
2023/02/27 07:15:37;;;;;;;2.95;1.40;;;;;;;4.08;100.00;98151.03;5093544;28;19954;-91
2023/02/27 07:18:03;;;;;;;1.30;1.20;;;;;;;4.22;100.00;98171.91;5094342;28;20085;-92
2023/02/27 07:20:28;;;;;;;1.83;1.35;;;;;;;4.40;100.00;98185.75;5092932;28;20393;-92
2023/02/27 07:22:56;;;;;;;1.65;1.50;;;;;;;4.29;100.00;98170.97;5096349;28;20512;-95
2023/02/27 07:25:22;;;;;;;1.52;1.38;;;;;;;4.19;100.00;98161.44;5095364;28;20509;-92
2023/02/27 07:27:49;;;;;;;2.38;1.67;;;;;;;4.21;100.00;98164.91;5095193;28;20055;-91
2023/02/27 07:30:16;;;;;;;1.63;1.50;;;;;;;4.23;100.00;98167.50;5095022;28;20048;-91
2023/02/27 07:32:42;;;;;;;2.03;1.80;;;;;;;4.33;100.00;98174.41;5094875;28;20138;-94
2023/02/27 07:35:09;;;;;;;3.55;2.83;;;;;;;4.33;100.00;98158.63;5095548;28;20066;-93
2023/02/27 07:37:35;;;;;;;1.52;1.42;;;;;;;4.53;100.00;98187.34;5095165;28;20134;-94
2023/02/27 07:40:04;;;;;;;1.70;1.60;;;;;;;4.41;100.00;98161.19;5094714;28;20064;-96
2023/02/27 07:42:30;;;;;;;2.22;1.60;;;;;;;4.49;100.00;98170.72;5095372;28;20050;-95
2023/02/27 07:44:56;;;;;;;2.45;1.80;;;;;;;4.73;100.00;98195.00;5095834;28;20043;-93
2023/02/27 07:47:21;;;;;;;1.65;1.55;;;;;;;4.70;100.00;98169.56;5095366;28;20036;-93
2023/02/27 07:49:47;;;;;;;3.45;2.38;;;;;;;4.91;100.00;98188.63;5094685;28;20067;-93
2023/02/27 07:52:13;;;;;;;2.10;1.67;;;;;;;4.80;100.00;98180.84;5093632;28;20040;-94
2023/02/27 07:54:39;;;;;;;2.05;1.73;;;;;;;4.90;100.00;98197.38;5093806;28;20067;-91
2023/02/27 07:57:06;;;;;;;4.03;1.73;;;;;;;4.81;100.00;98197.53;5093810;28;20044;-92
2023/02/27 07:59:32;;;;;;;2.80;2.10;;;;;;;4.83;100.00;98196.59;5093664;28;20131;-95
2023/02/27 08:01:58;;;;;;;3.45;2.20;;;;;;;4.76;100.00;98186.19;5093820;28;20139;-92
2023/02/27 08:04:24;;;;;;;5.25;2.78;;;;;;;4.92;100.00;98204.41;5093853;28;20094;-93
2023/02/27 08:06:50;;;;;;;3.50;2.28;;;;;;;4.99;100.00;98222.75;5094488;28;20078;-93
2023/02/27 08:09:16;;;;;;;2.92;2.20;;;;;;;4.89;100.00;98206.19;5093079;28;20078;-93
2023/02/27 08:11:42;;;;;;;2.20;1.60;;;;;;;4.94;100.00;98215.81;5093789;28;20516;-93
2023/02/27 08:14:09;;;;;;;3.25;2.20;;;;;;;5.16;100.00;98236.56;5094162;28;20153;-93
2023/02/27 08:16:39;;;;;;;2.95;1.60;;;;;;;4.97;100.00;98221.91;5091710;28;20068;-93
2023/02/27 08:19:05;;;;;;;2.90;1.98;;;;;;;4.97;100.00;98214.88;5096607;28;20094;-92
2023/02/27 08:21:31;;;;;;;3.42;1.70;;;;;;;4.95;100.00;98203.50;5096847;28;20459;-92
2023/02/27 08:24:01;;;;;;;5.85;3.30;;;;;;;5.00;100.00;98228.00;5094077;28;20047;-93
2023/02/27 08:26:28;;;;;;;5.35;3.13;;;;;;;4.85;100.00;98197.47;5097825;28;20101;-93
2023/02/27 08:28:54;;;;;;;8.18;4.28;;;;;;;4.97;100.00;98208.75;5097590;28;20042;-93
2023/02/27 08:31:22;;;;;;;6.50;3.30;;;;;;;5.07;100.00;98219.09;5096258;28;20041;-92
2023/02/27 08:33:48;;;;;;;6.72;3.40;;;;;;;5.13;100.00;98205.84;5096971;28;20400;-92
2023/02/27 08:36:14;;;;;;;6.97;3.30;;;;;;;5.42;100.00;98228.31;5097088;28;20044;-91
2023/02/27 08:38:40;;;;;;;7.90;4.07;;;;;;;5.36;100.00;98209.94;5094369;28;20044;-94
2023/02/27 08:41:06;;;;;;;5.93;2.92;;;;;;;5.50;100.00;98231.66;5097499;28;20039;-93
2023/02/27 08:43:32;;;;;;;3.22;2.13;;;;;;;5.14;100.00;98202.34;5099286;28;20059;-93
2023/02/27 08:45:58;;;;;;;4.60;2.92;;;;;;;5.32;100.00;98218.78;5098201;28;20052;-93
2023/02/27 08:48:26;;;;;;;3.53;2.17;;;;;;;5.21;100.00;98225.97;5097361;28;20040;-94
2023/02/27 08:50:52;;;;;;;2.88;2.30;;;;;;;5.28;100.00;98204.75;5096639;28;20060;-93
2023/02/27 08:53:18;;;;;;;4.47;2.10;;;;;;;5.27;100.00;98215.31;5096228;28;20055;-93
2023/02/27 08:55:47;;;;;;;3.05;2.10;;;;;;;5.20;100.00;98201.34;5098799;28;20064;-93
2023/02/27 08:58:13;;;;;;;2.78;2.00;;;;;;;5.35;100.00;98211.66;5100094;28;20181;-93
2023/02/27 09:00:40;;;;;;;2.67;1.90;;;;;;;5.54;100.00;98225.44;5099825;28;20093;-92
2023/02/27 09:03:06;;;;;;;3.47;2.20;;;;;;;5.56;100.00;98246.53;5100622;28;20066;-93
2023/02/27 09:05:34;;;;;;;2.83;1.70;;;;;;;5.59;100.00;98241.19;5100654;28;20502;-93
2023/02/27 09:08:00;;;;;;;3.30;1.83;;;;;;;5.76;100.00;98267.31;5101352;28;20047;-93
2023/02/27 09:10:26;;;;;;;3.45;1.92;;;;;;;5.74;100.00;98269.13;5100435;28;20036;-92
2023/02/27 09:12:52;;;;;;;3.33;1.90;;;;;;;5.62;100.00;98250.88;5100419;28;20063;-95
2023/02/27 09:15:18;;;;;;;2.92;2.05;;;;;;;5.58;100.00;98244.75;5100291;28;20395;-92
2023/02/27 09:17:44;;;;;;;3.90;2.10;;;;;;;5.60;100.00;98247.38;5097406;28;20116;-92
2023/02/27 09:20:11;;;;;;;3.30;1.98;;;;;;;5.52;100.00;98256.25;5099177;28;20094;-92
2023/02/27 09:22:38;;;;;;;3.58;1.92;;;;;;;5.75;100.00;98284.06;5100246;28;20127;-93
2023/02/27 09:25:05;;;;;;;2.90;2.03;;;;;;;5.64;100.00;98273.69;5099653;28;20050;-93
2023/02/27 09:27:31;;;;;;;3.45;2.30;;;;;;;5.71;100.00;98280.59;5097967;28;20044;-93
2023/02/27 09:29:58;;;;;;;3.08;2.35;;;;;;;5.58;100.00;98270.25;5098525;28;20512;-92
2023/02/27 09:32:26;;;;;;;4.82;2.17;;;;;;;5.51;100.00;98266.84;5099134;28;20130;-93
2023/02/27 09:34:52;;;;;;;3.60;2.10;;;;;;;5.52;100.00;98285.25;5099024;28;21311;-93
2023/02/27 09:37:18;;;;;;;3.10;2.22;;;;;;;5.70;100.00;98309.63;5096392;28;20130;-92
2023/02/27 09:39:46;;;;;;;2.88;1.92;;;;;;;5.69;100.00;98274.47;5097799;28;20028;-91
2023/02/27 09:42:17;;;;;;;5.03;2.00;;;;;;;5.90;100.00;98314.63;5098875;28;20064;-93
2023/02/27 09:44:46;;;;;;;3.65;2.28;;;;;;;5.96;100.00;98314.53;5098468;28;20093;-92
2023/02/27 09:47:16;;;;;;;3.58;2.10;;;;;;;6.03;100.00;98320.59;5096180;28;20044;-91
2023/02/27 09:49:59;;;;;;;3.85;2.10;;;;;;;5.85;100.00;98301.47;5097089;28;20032;-93
2023/02/27 09:52:26;;;;;;;4.35;2.50;;;;;;;5.69;100.00;98287.66;5093205;28;20044;-94
2023/02/27 09:54:54;;;;;;;3.70;2.15;;;;;;;6.10;100.00;98307.28;5096557;28;20071;-91
2023/02/27 09:57:28;;;;;;;3.85;2.20;;;;;;;6.06;100.00;98292.38;5096050;28;20490;-91
2023/02/27 09:59:59;;;;;;;4.75;2.30;;;;;;;6.09;100.00;98289.69;5096331;28;20062;-96
2023/02/27 10:02:37;;;;;;;4.75;2.50;;;;;;;6.32;100.00;98317.47;5097391;28;20052;-94
2023/02/27 10:05:13;;;;;;;4.50;2.30;;;;;;;6.16;100.00;98285.19;5098681;28;20419;-93
2023/02/27 10:07:43;;;;;;;3.10;2.10;;;;;;;6.46;100.00;98326.03;5096797;28;20097;-95
2023/02/27 10:10:29;;;;;;;3.35;2.00;;;;;;;6.23;100.00;98317.63;5096926;28;20040;-92
2023/02/27 10:13:17;;;;;;;3.15;1.90;;;;;;;6.39;100.00;98319.09;5097384;28;20040;-92
2023/02/27 10:15:46;;;;;;;3.85;1.80;;;;;;;6.54;100.00;98324.09;5093130;28;20539;-94
2023/02/27 10:18:18;;;;;;;2.60;1.90;;;;;;;6.47;98.54;98324.25;5096372;28;20382;-93
2023/02/27 10:20:50;;;;;;;2.40;1.70;;;;;;;6.61;99.50;98306.38;5098236;28;20070;-92
2023/02/27 10:23:20;;;;;;;2.78;1.83;;;;;;;6.47;97.53;98293.44;5098220;28;20039;-93
2023/02/27 10:25:50;;;;;;;2.05;1.50;;;;;;;6.64;95.94;98297.53;5097292;28;20040;-93
2023/02/27 10:28:18;;;;;;;1.95;1.50;;;;;;;6.50;97.51;98303.94;5095976;28;20040;-94
2023/02/27 10:30:48;;;;;;;1.40;1.30;;;;;;;6.70;96.74;98335.28;5096854;28;20130;-93
2023/02/27 10:33:25;;;;;;;1.33;1.20;;;;;;;6.68;94.42;98294.81;5096000;28;20066;-95
2023/02/27 10:35:52;;;;;;;1.35;1.25;;;;;;;6.91;94.59;98314.63;5098089;28;20043;-94
2023/02/27 10:38:25;;;;;;;1.33;1.23;;;;;;;7.07;89.66;98313.44;5096404;28;20132;-94
2023/02/27 10:40:55;;;;;;;1.30;1.20;;;;;;;7.32;91.67;98303.19;5097074;28;20130;-93
2023/02/27 10:43:21;;;;;;;1.85;1.40;;;;;;;7.60;91.30;98311.38;5096613;28;20044;-94
2023/02/27 10:45:47;;;;;;;2.03;1.60;;;;;;;7.51;87.56;98314.25;5096145;28;20052;-94
2023/02/27 10:48:14;;;;;;;1.95;1.38;;;;;;;7.58;90.13;98299.97;5095526;28;20147;-94
2023/02/27 10:50:42;;;;;;;1.85;1.48;;;;;;;7.22;90.84;98311.34;5097777;28;20044;-95
2023/02/27 10:53:17;;;;;;;2.00;1.30;;;;;;;7.46;87.77;98321.44;5098191;28;20040;-95
2023/02/27 10:55:54;;;;;;;2.22;1.45;;;;;;;7.39;85.27;98319.78;5096053;28;20103;-92
2023/02/27 10:58:22;;;;;;;1.92;1.45;;;;;;;7.46;87.07;98323.19;5096239;28;20131;-93
2023/02/27 11:00:54;;;;;;;1.73;1.38;;;;;;;7.51;85.74;98305.44;5094804;28;20055;-94
2023/02/27 11:03:23;;;;;;;5.25;1.40;;;;;;;7.76;84.36;98292.50;5092598;28;20048;-93
2023/02/27 11:05:56;;;;;;;1.65;1.20;;;;;;;7.91;86.93;98302.72;5094286;28;20050;-94
2023/02/27 11:08:24;;;;;;;1.80;1.60;;;;;;;8.16;84.96;98305.66;5094935;28;20101;-92
2023/02/27 11:10:59;;;;;;;3.23;1.70;;;;;;;8.13;83.96;98303.09;5095123;28;20047;-95
2023/02/27 11:13:28;;;;;;;1.65;1.50;;;;;;;8.56;83.80;98325.00;5095912;28;20048;-93
2023/02/27 11:16:05;;;;;;;1.95;1.48;;;;;;;8.68;83.33;98331.78;5096274;28;20131;-93
2023/02/27 11:18:31;;;;;;;1.50;1.40;;;;;;;8.36;85.32;98329.00;5092169;28;20039;-93
2023/02/27 11:21:15;;;;;;;1.98;1.55;;;;;;;8.53;84.23;98317.16;5097333;28;20047;-94
2023/02/27 11:23:53;;;;;;;5.63;2.47;;;;;;;8.68;81.69;98331.78;5094499;28;20458;-92
2023/02/27 11:26:23;;;;;;;2.78;1.77;;;;;;;8.38;80.78;98307.78;5093894;28;20509;-92
2023/02/27 11:29:07;;;;;;;1.60;1.50;;;;;;;8.13;79.75;98296.91;5092254;28;20043;-93
2023/02/27 11:31:36;;;;;;;1.40;1.30;;;;;;;7.99;82.21;98299.91;5092836;28;20085;-92
2023/02/27 11:34:03;;;;;;;2.53;1.60;;;;;;;7.74;83.62;98300.50;5094059;28;20047;-93
2023/02/27 11:36:42;;;;;;;2.05;1.42;;;;;;;8.02;81.68;98306.03;5094334;28;21539;-93
2023/02/27 11:39:21;;;;;;;1.47;1.23;;;;;;;7.94;80.71;98318.56;5093416;28;20065;-93
2023/02/27 11:41:47;;;;;;;1.15;1.10;;;;;;;8.06;78.92;98304.16;5093767;28;20090;-92
2023/02/27 11:44:18;;;;;;;1.95;1.50;;;;;;;7.58;80.66;98292.03;5093359;28;20097;-92
2023/02/27 11:46:45;;;;;;;1.30;1.20;;;;;;;8.05;80.10;98318.31;5092478;28;20044;-92
2023/02/27 11:49:24;;;;;;;1.40;1.30;;;;;;;7.58;79.99;98296.47;5093721;28;20180;-91